createdAt,value
2022-08-04T00:02:42.232Z,22.60
2022-08-04T00:07:54.829Z,22.60
2022-08-04T00:12:59.057Z,22.50
2022-08-04T00:18:04.405Z,22.50
2022-08-04T00:23:09.641Z,22.70
2022-08-04T00:28:14.010Z,22.80
2022-08-04T00:33:20.515Z,22.90
2022-08-04T00:38:25.945Z,22.90
2022-08-04T00:43:32.634Z,23.00
2022-08-04T00:48:43.900Z,23.00
2022-08-04T00:53:57.017Z,23.00
2022-08-04T00:59:04.539Z,23.00
2022-08-04T01:04:12.070Z,23.00
2022-08-04T01:09:25.829Z,23.20
2022-08-04T01:14:37.396Z,23.00
2022-08-04T01:19:48.204Z,23.00
2022-08-04T01:25:12.948Z,23.00
2022-08-04T01:30:19.226Z,22.80
2022-08-04T01:35:47.995Z,22.80
2022-08-04T01:40:49.549Z,22.70
2022-08-04T01:45:58.817Z,22.70
2022-08-04T01:51:05.240Z,22.50
2022-08-04T01:56:09.839Z,22.50
2022-08-04T02:01:15.053Z,22.30
2022-08-04T02:06:24.505Z,22.20
2022-08-04T02:11:27.946Z,22.10
2022-08-04T02:16:39.156Z,22.10
2022-08-04T02:21:43.148Z,22.00
2022-08-04T02:26:49.617Z,22.10
2022-08-04T02:31:58.349Z,22.20
2022-08-04T02:37:01.955Z,22.30
2022-08-04T02:42:06.564Z,22.20
2022-08-04T02:47:15.073Z,22.10
2022-08-04T02:52:19.582Z,22.10
2022-08-04T02:57:25.007Z,22.00
2022-08-04T03:02:35.653Z,21.90
2022-08-04T03:07:57.374Z,21.90
2022-08-04T03:13:18.346Z,21.80
2022-08-04T03:18:39.299Z,21.70
2022-08-04T03:23:58.825Z,21.70
2022-08-04T03:29:36.036Z,21.70
2022-08-04T03:34:54.393Z,21.60
2022-08-04T03:40:10.881Z,21.50
2022-08-04T03:45:41.388Z,21.50
2022-08-04T03:51:35.365Z,21.40
2022-08-04T03:57:03.415Z,21.40
2022-08-04T04:02:18.537Z,21.40
2022-08-04T04:07:39.566Z,21.30
2022-08-04T04:12:55.314Z,21.40
2022-08-04T04:18:16.722Z,21.50
2022-08-04T04:23:32.576Z,21.70
2022-08-04T04:28:47.216Z,21.80
2022-08-04T04:33:54.194Z,21.70
2022-08-04T04:39:02.185Z,21.70
2022-08-04T04:44:20.570Z,21.70
2022-08-04T04:49:30.307Z,22.80
2022-08-04T04:54:35.453Z,24.80
2022-08-04T04:59:42.977Z,26.70
2022-08-04T05:05:12.665Z,28.00
2022-08-04T05:10:25.012Z,28.30
2022-08-04T05:15:31.728Z,26.30
2022-08-04T05:20:36.367Z,24.90
2022-08-04T05:25:42.462Z,24.20
2022-08-04T05:31:07.223Z,24.00
2022-08-04T05:36:20.648Z,23.80
2022-08-04T05:41:44.740Z,23.70
2022-08-04T05:46:54.780Z,23.60
2022-08-04T05:52:01.118Z,23.60
2022-08-04T05:57:05.834Z,23.50
2022-08-04T06:02:11.294Z,23.50
2022-08-04T06:07:15.292Z,23.60
2022-08-04T06:12:19.991Z,23.60
2022-08-04T06:18:33.338Z,23.70
2022-08-04T06:22:52.284Z,23.80
2022-08-04T06:27:56.267Z,23.90
2022-08-04T06:33:05.176Z,24.10
2022-08-04T06:38:10.118Z,24.20
2022-08-04T06:43:16.109Z,24.50
2022-08-04T06:48:21.492Z,24.60
2022-08-04T06:53:26.519Z,24.80
2022-08-04T06:58:31.957Z,25.00
2022-08-04T07:03:37.842Z,25.20
2022-08-04T07:08:41.540Z,25.30
2022-08-04T07:13:45.651Z,25.40
2022-08-04T07:18:50.695Z,25.60
2022-08-04T07:23:55.109Z,25.80
2022-08-04T07:28:59.650Z,26.10
2022-08-04T07:34:21.376Z,26.30
2022-08-04T07:39:29.329Z,26.60
2022-08-04T07:44:33.977Z,26.90
2022-08-04T07:49:57.302Z,27.20
2022-08-04T07:55:01.731Z,27.50
2022-08-04T08:00:06.337Z,27.90
2022-08-04T08:05:16.865Z,28.10
2022-08-04T08:10:20.918Z,28.40
2022-08-04T08:15:24.233Z,28.80
2022-08-04T08:20:30.350Z,29.10
2022-08-04T08:25:34.685Z,29.50
2022-08-04T08:30:38.020Z,29.90
2022-08-04T08:35:54.439Z,30.20
2022-08-04T08:41:03.299Z,30.40
2022-08-04T08:46:45.226Z,30.60
2022-08-04T08:52:13.316Z,30.80
2022-08-04T08:57:31.643Z,31.20
2022-08-04T09:02:42.792Z,31.50
2022-08-04T09:08:12.943Z,31.70
2022-08-04T09:13:24.862Z,31.80
2022-08-04T09:18:29.176Z,32.40
2022-08-04T09:23:37.280Z,32.50
2022-08-04T09:28:56.045Z,32.80
2022-08-04T09:34:02.782Z,33.20
2022-08-04T09:39:11.610Z,33.30
2022-08-04T09:44:50.368Z,33.50
2022-08-04T09:49:47.557Z,33.60
2022-08-04T09:54:54.150Z,33.90
2022-08-04T10:00:02.639Z,33.90
2022-08-04T10:05:17.898Z,34.20
2022-08-04T10:10:25.150Z,34.40
2022-08-04T10:15:33.252Z,34.80
2022-08-04T10:20:59.121Z,34.90
2022-08-04T10:26:16.386Z,35.00
2022-08-04T10:31:24.614Z,35.50
2022-08-04T10:36:29.992Z,35.50
2022-08-04T10:41:36.550Z,35.70
2022-08-04T10:46:46.932Z,35.60
2022-08-04T10:51:58.607Z,35.40
2022-08-04T10:57:05.996Z,35.40
2022-08-04T11:02:17.775Z,35.60
2022-08-04T11:07:22.363Z,35.60
2022-08-04T11:12:27.398Z,35.80
2022-08-04T11:17:35.123Z,35.80
2022-08-04T11:22:40.309Z,35.80
2022-08-04T11:27:48.656Z,35.80
2022-08-04T11:33:03.249Z,35.90
2022-08-04T11:38:10.732Z,35.90
2022-08-04T11:43:15.513Z,36.10
2022-08-04T11:48:43.536Z,36.10
2022-08-04T11:53:47.375Z,36.10
2022-08-04T11:58:50.858Z,36.10
2022-08-04T12:04:04.161Z,36.10
2022-08-04T12:09:13.917Z,36.20
2022-08-04T12:14:27.397Z,36.10
2022-08-04T12:19:56.103Z,36.10
2022-08-04T12:25:01.497Z,36.00
2022-08-04T12:30:58.059Z,36.20
2022-08-04T12:36:10.945Z,36.10
2022-08-04T12:48:02.648Z,36.00
2022-08-04T12:53:32.659Z,36.20
2022-08-04T12:58:42.772Z,36.20
2022-08-04T13:04:00.326Z,36.20
2022-08-04T13:21:50.540Z,36.20
2022-08-04T13:27:17.122Z,36.20
2022-08-04T13:32:22.480Z,36.70
2022-08-04T13:37:27.776Z,36.70
2022-08-04T13:42:35.718Z,36.60
2022-08-04T13:47:40.536Z,36.50
2022-08-04T13:52:46.902Z,36.70
2022-08-04T13:57:55.107Z,36.70
2022-08-04T14:03:01.983Z,36.60
2022-08-04T14:08:08.941Z,36.60
2022-08-04T14:13:16.135Z,36.40
2022-08-04T14:18:21.266Z,36.30
2022-08-04T14:23:24.852Z,36.60
2022-08-04T14:29:26.656Z,36.60
2022-08-04T14:41:07.438Z,36.40
2022-08-04T14:46:12.746Z,36.40
2022-08-04T14:51:16.178Z,36.60
2022-08-04T14:56:44.823Z,36.60
2022-08-04T15:01:44.414Z,36.70
2022-08-04T15:06:48.170Z,36.70
2022-08-04T15:11:51.576Z,36.30
2022-08-04T15:16:56.473Z,36.20
2022-08-04T15:22:00.317Z,35.80
2022-08-04T15:27:03.962Z,35.70
2022-08-04T15:32:09.770Z,35.60
2022-08-04T15:37:14.989Z,35.70
2022-08-04T15:42:23.448Z,35.80
2022-08-04T15:47:28.628Z,35.70
2022-08-04T15:53:01.409Z,35.70
2022-08-04T15:58:16.423Z,35.70
2022-08-04T16:03:58.853Z,35.60
2022-08-04T16:09:03.697Z,35.50
2022-08-04T16:14:09.971Z,35.60
2022-08-04T16:19:16.786Z,35.70
2022-08-04T16:24:22.865Z,35.70
2022-08-04T16:29:27.214Z,35.70
2022-08-04T16:34:49.987Z,35.90
2022-08-04T16:40:08.870Z,36.50
2022-08-04T16:45:13.975Z,37.30
2022-08-04T16:50:18.032Z,37.40
2022-08-04T16:55:21.902Z,37.00
2022-08-04T17:00:33.084Z,37.10
2022-08-04T17:05:39.895Z,37.60
2022-08-04T17:10:45.064Z,37.60
2022-08-04T17:15:50.187Z,37.10
2022-08-04T17:20:59.343Z,36.40
2022-08-04T17:26:08.000Z,35.80
2022-08-04T17:31:17.414Z,35.40
2022-08-04T17:36:24.266Z,35.00
2022-08-04T17:41:38.921Z,34.80
2022-08-04T17:46:45.662Z,34.50
2022-08-04T17:52:05.208Z,34.10
2022-08-04T17:57:20.261Z,33.80
2022-08-04T18:02:32.155Z,33.60
2022-08-04T18:08:40.589Z,33.30
2022-08-04T18:13:14.295Z,33.20
2022-08-04T18:18:23.354Z,33.40
2022-08-04T18:23:31.549Z,33.50
2022-08-04T18:28:35.636Z,33.20
2022-08-04T18:33:42.266Z,32.90
2022-08-04T18:38:54.497Z,32.60
2022-08-04T18:44:00.098Z,32.40
2022-08-04T18:49:04.752Z,32.20
2022-08-04T18:54:08.532Z,31.90
2022-08-04T18:59:11.706Z,31.60
2022-08-04T19:04:33.587Z,31.40
2022-08-04T19:09:51.019Z,31.20
2022-08-04T19:14:58.925Z,31.00
2022-08-04T19:20:15.978Z,30.90
2022-08-04T19:25:58.953Z,30.70
2022-08-04T19:30:51.168Z,30.60
2022-08-04T19:35:56.610Z,30.50
2022-08-04T19:41:00.430Z,30.30
2022-08-04T19:46:04.581Z,30.20
2022-08-04T19:51:09.528Z,30.00
2022-08-04T19:56:12.782Z,30.00
2022-08-04T20:01:33.423Z,29.90
2022-08-04T20:06:41.468Z,29.90
2022-08-04T20:11:44.595Z,29.90
2022-08-04T20:16:50.087Z,29.90
2022-08-04T20:21:56.542Z,29.90
2022-08-04T20:26:59.840Z,29.90
2022-08-04T20:32:05.450Z,29.80
2022-08-04T20:37:13.935Z,29.70
2022-08-04T20:42:18.975Z,29.60
2022-08-04T20:47:35.759Z,29.60
2022-08-04T20:52:43.158Z,29.60
2022-08-04T20:57:48.542Z,29.60
2022-08-04T21:02:52.375Z,29.70
2022-08-04T21:07:57.566Z,29.60
2022-08-04T21:13:00.979Z,29.60
2022-08-04T21:18:06.517Z,29.50
2022-08-04T21:23:11.604Z,29.50
2022-08-04T21:28:20.389Z,29.50
2022-08-04T21:33:28.141Z,29.40
2022-08-04T21:38:51.134Z,29.30
2022-08-04T21:43:56.316Z,29.10
2022-08-04T21:49:02.206Z,29.00
2022-08-04T21:54:08.211Z,28.90
2022-08-04T21:59:14.425Z,28.70
2022-08-04T22:04:17.701Z,28.60
2022-08-04T22:09:22.487Z,28.60
2022-08-04T22:14:29.596Z,28.40
2022-08-04T22:19:39.840Z,28.40
2022-08-04T22:24:55.431Z,28.20
2022-08-04T22:30:04.797Z,28.10
2022-08-04T22:35:30.730Z,28.00
2022-08-04T22:40:33.217Z,27.90
2022-08-04T22:45:44.223Z,27.70
2022-08-04T22:50:49.016Z,27.50
2022-08-04T22:56:06.880Z,27.10
2022-08-04T23:01:15.064Z,27.00
2022-08-04T23:06:19.024Z,26.70
2022-08-04T23:11:34.686Z,26.50
2022-08-04T23:16:40.325Z,26.30
2022-08-04T23:21:47.965Z,26.20
2022-08-04T23:27:06.374Z,26.00
2022-08-04T23:32:15.258Z,26.10
2022-08-04T23:37:24.387Z,26.00
2022-08-04T23:42:40.410Z,25.90
2022-08-04T23:48:15.298Z,25.70
2022-08-04T23:53:10.814Z,25.40
2022-08-04T23:58:27.483Z,25.20
